Latest Weather Observations for Ballarat

IDV60801

Issued at 2:35 pm EDT Saturday 1 November 2014 (issued every 30 minutes, with the page automatically refreshed every 10 minutes)

About weather observations | Map of weather stations | Latest weather observations for VIC | Other Formats
Station Details ID: 089002 Name: BALLARAT AERODROME Lat: -37.51 Lon: 143.79 Height: 435.2 m
Data from the previous 72 hours. | See also: Recent months at Ballarat
Date/Time
EDT
Temp
°C
App
Temp
°C
Dew
Point
Rel
Hum
%
Delta-T
°C
Wind Press
QNH
hPa
Press
MSL
hPa
Rain
since 9 am
mm
Dir
 
Spd
km/h
Gust
km/h
Spd
kts
Gust
kts
01/02:30pm 10.0 2.9 5.6 74 2.1 WSW 32 50 17 27 1009.8 1009.2 1.4
01/02:21pm 9.1 2.9 6.2 82 1.4 WSW 28 50 15 27 1009.7 1009.1 1.4
01/02:00pm 6.6 0.1 6.3 98 0.1 WSW 30 43 16 23 1009.9 1009.3 1.4
01/01:46pm 8.7 -2.2 3.5 70 2.3 WSW 50 70 27 38 1009.1 1008.5 0.8
01/01:30pm 11.2 4.4 5.3 67 2.8 SW 30 48 16 26 1008.6 1008.0 0.8
01/01:29pm 11.3 4.7 6.2 71 2.4 SW 30 48 16 26 1008.6 1008.0 0.8
01/01:00pm 8.7 2.7 7.0 89 0.8 WSW 28 39 15 21 1008.7 1008.1 0.8
01/12:30pm 10.6 3.1 3.6 62 3.2 WSW 32 50 17 27 1008.1 1007.5 0.2
01/12:00pm 10.1 3.7 6.8 80 1.6 WSW 30 48 16 26 1007.7 1007.1 0.2
01/11:41am 10.9 4.9 7.0 77 1.9 SW 28 46 15 25 1007.6 1007.0 0.2
01/11:30am 9.6 1.3 6.1 79 1.7 WSW 39 56 21 30 1007.5 1006.9 0.2
01/11:00am 9.1 2.6 8.2 94 0.4 W 32 50 17 27 1007.1 1006.5 0.2
01/10:59am 9.2 2.8 8.4 95 0.4 WSW 32 50 17 27 1007.1 1006.9 0.2
01/10:57am 9.1 2.4 8.3 95 0.4 WSW 33 50 18 27 1007.1 1006.9 0.2
01/10:47am 8.3 0.4 8.0 98 0.1 W 39 57 21 31 1007.1 1006.9 0.2
01/10:40am 10.0 3.6 7.1 82 1.4 W 30 57 16 31 1006.7 1006.5 0.0
01/10:30am 10.9 4.3 6.1 72 2.3 WSW 30 39 16 21 1006.5 1006.3 0.0
01/10:15am 10.1 3.0 5.7 74 2.1 WSW 32 52 17 28 1006.4 1006.2 0.0
01/10:00am 11.1 4.2 6.5 73 2.2 WSW 32 46 17 25 1006.2 1006.0 0.0
01/09:30am 10.5 5.1 6.5 76 1.9 WSW 24 33 13 18 1005.8 1005.7 0.0
01/09:00am 9.8 5.4 8.9 94 0.5 WSW 22 35 12 19 1005.5 1005.3 6.0
01/08:39am 8.9 4.0 8.6 98 0.1 WSW 24 32 13 17 1005.2 1005.0 -
01/08:30am 9.0 4.2 8.7 98 0.1 WSW 24 37 13 20 1005.1 1004.9 -
01/08:03am 8.7 2.7 8.6 99 0.0 WSW 30 50 16 27 1004.5 1004.3 -
01/08:00am 8.8 2.4 8.7 99 0.1 WSW 32 43 17 23 1004.4 1004.2 -
01/07:55am 8.8 2.4 8.7 99 0.0 WSW 32 44 17 24 1004.3 1004.1 -
01/07:34am 10.1 4.8 9.9 99 0.1 WSW 28 50 15 27 1003.7 1003.4 -
01/07:30am 10.5 5.3 10.3 99 0.1 WSW 28 41 15 22 1003.4 1003.2 -
01/07:21am 10.6 6.2 10.4 99 0.1 W 24 37 13 20 1003.1 1002.9 -
01/07:00am 10.6 6.2 10.4 99 0.1 W 24 33 13 18 1002.7 1002.5 -
01/06:30am 10.6 6.6 10.4 99 0.1 W 22 30 12 16 1002.5 1002.3 -
01/06:00am 10.5 6.1 10.3 99 0.1 W 24 33 13 18 1002.2 1002.0 -
01/05:30am 10.9 6.3 10.9 100 0.0 W 26 37 14 20 1001.9 1001.7 -
01/05:19am 11.0 6.0 11.0 100 0.0 W 28 39 15 21 1001.6 1001.3 -
01/05:00am 11.3 7.5 11.1 99 0.1 W 22 39 12 21 1001.5 1001.2 -
01/04:45am 11.3 8.1 11.1 99 0.1 W 19 24 10 13 1001.4 1001.1 -
01/04:30am 11.3 8.4 11.1 99 0.1 WSW 17 26 9 14 1000.8 1000.6 -
01/04:24am 11.4 8.6 11.2 99 0.1 WSW 17 24 9 13 1000.3 1000.1 -
01/04:00am 11.6 10.3 11.3 98 0.2 SW 9 15 5 8 999.7 999.4 -
01/03:30am 12.1 11.5 11.8 98 0.2 WNW 6 7 3 4 1000.4 1000.2 -
01/03:00am 12.2 11.5 11.9 98 0.2 W 7 11 4 6 1000.5 1000.3 -
01/02:30am 12.2 11.7 11.9 98 0.2 NNW 6 6 3 3 1001.0 1000.8 -
01/02:00am 12.7 10.7 11.6 93 0.6 WSW 13 22 7 12 1002.0 1001.8 0.0
01/01:30am 13.3 10.1 11.4 88 1.0 WSW 19 24 10 13 1002.1 1001.9 0.0
01/01:00am 13.5 10.8 11.7 89 1.0 SW 17 20 9 11 1001.4 1001.1 0.0
01/12:30am 14.1 11.4 11.6 85 1.4 SW 17 26 9 14 1001.4 1001.1 0.0
01/12:00am 14.1 12.0 12.3 89 1.0 SSW 15 20 8 11 1001.7 1001.4 0.0
 
Date/Time
EDT
Temp
°C
App
Temp
°C
Dew
Point
Rel
Hum
%
Delta-T
°C
Wind Press
QNH
hPa
Press
MSL
hPa
Rain
since 9 am
mm
Dir
 
Spd
km/h
Gust
km/h
Spd
kts
Gust
kts
31/11:30pm 14.9 11.4 10.3 74 2.5 S 19 24 10 13 1001.2 1000.9 0.0
31/11:00pm 16.6 11.3 8.3 58 4.3 SSW 26 43 14 23 1001.4 1001.1 0.0
31/10:31pm 20.0 12.9 5.3 38 7.4 SW 32 50 17 27 1000.5 1000.3 0.0
31/10:30pm 20.3 12.9 5.1 37 7.6 WSW 33 50 18 27 1000.4 1000.2 0.0
31/10:29pm 21.0 13.8 5.0 35 8.0 WSW 32 48 17 26 1000.3 1000.1 0.0
31/10:00pm 21.4 17.2 5.7 36 8.1 NNW 17 19 9 10 999.6 999.3 0.0
31/09:30pm 22.9 16.9 3.4 28 9.6 NNW 24 32 13 17 999.8 999.5 0.0
31/09:00pm 20.0 16.0 6.7 42 6.9 N 17 19 9 10 999.6 999.3 0.0
31/08:30pm 20.6 16.2 5.0 36 7.8 N 17 19 9 10 999.6 999.3 0.0
31/08:00pm 21.4 16.4 4.5 33 8.5 N 20 22 11 12 999.9 999.7 0.0
31/07:30pm 23.4 18.5 5.3 31 9.3 NNW 20 24 11 13 1000.1 999.9 0.0
31/07:00pm 26.6 19.9 3.8 23 11.7 NNW 28 37 15 20 1000.2 1000.0 0.0
31/06:30pm 27.6 21.1 4.6 23 12.0 NNW 28 35 15 19 1000.5 1000.3 0.0
31/06:00pm 26.8 20.5 4.0 23 11.7 NNW 26 37 14 20 1000.9 1000.7 0.0
31/05:30pm 27.3 19.8 4.4 23 11.8 NNW 33 41 18 22 1001.4 1001.1 0.0
31/05:00pm 28.1 20.4 2.3 19 13.0 NNW 32 50 17 27 1001.9 1001.7 0.0
31/04:58pm 27.5 20.2 2.6 20 12.5 NNW 30 50 16 27 1001.9 1001.7 0.0
31/04:30pm 26.9 19.3 4.0 23 11.7 NNW 33 43 18 23 1002.4 1002.2 0.0
31/04:00pm 28.0 18.3 3.7 21 12.5 NNW 44 56 24 30 1002.9 1002.7 0.0
31/03:30pm 27.9 19.2 4.2 22 12.3 N 39 50 21 27 1003.3 1003.1 0.0
31/03:00pm 28.0 20.5 6.2 25 11.7 N 35 54 19 29 1004.0 1003.8 0.0
31/02:43pm 27.3 19.0 4.4 23 11.8 N 37 56 20 30 1004.4 1004.2 0.0
31/02:30pm 27.1 18.8 4.2 23 11.8 N 37 52 20 28 1004.7 1004.5 0.0
31/02:00pm 25.9 18.1 4.9 26 10.9 N 35 48 19 26 1005.3 1005.1 0.0
31/01:30pm 25.0 16.8 4.7 27 10.4 N 37 50 20 27 1005.8 1005.7 0.0
31/01:00pm 24.2 16.2 4.0 27 10.2 N 35 48 19 26 1006.4 1006.2 0.0
31/12:30pm 23.7 15.9 5.1 30 9.5 N 35 44 19 24 1007.0 1006.8 0.0
31/12:00pm 21.9 14.8 8.1 41 7.4 N 35 44 19 24 1007.8 1007.7 0.0
31/11:30am 20.9 14.5 9.2 47 6.4 N 33 41 18 22 1008.7 1008.5 0.0
31/11:00am 19.6 13.7 9.2 51 5.6 N 30 39 16 21 1009.3 1009.1 0.0
31/10:30am 18.4 12.2 9.5 56 4.8 NNE 32 41 17 22 1009.4 1009.2 0.0
31/10:00am 15.9 10.4 9.1 64 3.6 N 28 43 15 23 1010.1 1010.0 0.0
31/09:30am 15.6 9.0 8.4 62 3.7 N 33 43 18 23 1009.7 1009.6 0.0
31/09:00am 14.7 10.7 10.3 75 2.4 N 22 26 12 14 1010.0 1009.9 0.0
31/08:30am 14.4 11.5 9.8 74 2.4 N 15 22 8 12 1010.2 1010.1 0.0
31/08:00am 14.1 11.8 10.5 79 1.9 NE 13 15 7 8 1010.0 1009.9 0.0
31/07:30am 10.7 8.8 10.5 99 0.1 NE 11 13 6 7 1009.9 1009.8 0.0
31/07:00am 7.3 5.3 7.2 99 0.0 E 7 9 4 5 1010.2 1010.1 0.0
31/06:30am 6.5 4.5 6.4 99 0.0 E 6 7 3 4 1010.4 1010.3 0.0
31/06:00am 5.8 3.7 5.7 99 0.0 E 6 7 3 4 1010.4 1010.3 0.0
31/05:30am 6.2 4.5 6.1 99 0.0 ENE 4 7 2 4 1010.5 1010.4 0.0
31/05:00am 6.1 5.2 6.0 99 0.0 CALM 0 0 0 0 1010.6 1010.5 0.0
31/04:30am 6.0 4.3 5.9 99 0.0 ESE 4 6 2 3 1010.5 1010.4 0.0
31/04:00am 6.2 4.2 6.1 99 0.0 E 6 7 3 4 1010.6 1010.5 0.0
31/03:30am 6.1 4.0 6.0 99 0.0 NE 6 7 3 4 1011.1 1010.9 0.0
31/03:00am 6.4 4.4 6.1 98 0.1 NE 6 6 3 3 1011.4 1011.2 0.0
31/02:30am 7.5 5.6 7.4 99 0.0 SE 7 9 4 5 1011.6 1011.4 0.0
31/02:00am 8.0 5.8 7.9 99 0.0 SSE 9 13 5 7 1011.9 1011.8 0.0
31/01:30am 8.3 6.2 8.2 99 0.0 SE 9 13 5 7 1012.5 1012.4 0.0
31/01:00am 8.1 5.6 8.0 99 0.0 SE 11 13 6 7 1013.0 1012.9 0.0
31/12:30am 8.1 5.1 7.8 98 0.1 SE 13 15 7 8 1013.8 1013.7 0.0
31/12:00am 8.4 6.3 8.1 98 0.1 SSE 9 11 5 6 1013.9 1013.8 0.0
 
Date/Time
EDT
Temp
°C
App
Temp
°C
Dew
Point
Rel
Hum
%
Delta-T
°C
Wind Press
QNH
hPa
Press
MSL
hPa
Rain
since 9 am
mm
Dir
 
Spd
km/h
Gust
km/h
Spd
kts
Gust
kts
30/11:30pm 9.1 7.1 8.8 98 0.2 S 9 11 5 6 1013.9 1013.8 0.0
30/11:00pm 10.1 8.3 9.3 95 0.4 S 9 11 5 6 1013.9 1013.8 0.0
30/10:30pm 11.6 8.9 10.3 92 0.7 S 15 17 8 9 1013.9 1013.8 0.0
30/10:00pm 11.9 9.1 10.1 89 0.9 S 15 17 8 9 1013.6 1013.4 0.0
30/09:30pm 13.3 10.1 10.1 81 1.7 S 17 22 9 12 1013.7 1013.6 0.0
30/09:00pm 13.9 10.1 8.9 72 2.6 S 19 22 10 12 1013.5 1013.3 0.0
30/08:30pm 14.7 12.1 7.7 63 3.6 S 11 13 6 7 1013.3 1013.1 0.0
30/08:00pm 16.5 13.7 6.9 53 4.9 S 11 13 6 7 1013.1 1013.0 0.0
30/07:30pm 18.6 16.4 6.4 45 6.2 SSW 7 11 4 6 1012.8 1012.7 0.0
30/07:00pm 19.4 16.4 5.8 41 6.9 SSW 11 13 6 7 1012.8 1012.7 0.0
30/06:30pm 20.2 17.5 5.8 39 7.3 SW 9 13 5 7 1013.0 1012.9 0.0
30/06:00pm 20.2 16.8 5.8 39 7.3 W 13 19 7 10 1013.3 1013.1 0.0
30/05:30pm 20.6 17.2 5.8 38 7.5 WSW 13 20 7 11 1013.1 1013.0 0.0
30/05:00pm 20.3 17.4 6.6 41 7.1 SSW 11 22 6 12 1013.4 1013.2 0.0
30/04:30pm 20.3 17.1 7.0 42 6.9 SW 13 22 7 12 1013.5 1013.3 0.0
30/04:00pm 20.4 17.8 7.7 44 6.7 WSW 11 17 6 9 1013.5 1013.3 0.0
30/03:30pm 19.8 16.8 7.5 45 6.4 W 13 24 7 13 1013.5 1013.3 0.0
30/03:00pm 19.0 16.8 7.8 48 5.9 SSW 9 13 5 7 1013.9 1013.8 0.0
30/02:30pm 18.4 15.4 7.5 49 5.6 W 13 24 7 13 1014.1 1014.0 0.0
30/02:00pm 18.0 14.5 8.8 55 4.9 WNW 17 22 9 12 1014.4 1014.3 0.0
30/01:30pm 17.2 13.2 8.1 55 4.7 NW 19 22 10 12 1014.5 1014.4 0.0
30/01:00pm 16.5 12.9 8.2 58 4.3 W 17 26 9 14 1015.0 1014.9 0.0
30/12:30pm 16.0 13.5 8.2 60 4.0 NW 11 20 6 11 1015.1 1015.0 0.0
30/12:00pm 15.0 11.9 8.7 66 3.3 WNW 15 20 8 11 1015.3 1015.2 0.0
30/11:30am 14.2 12.0 7.7 65 3.3 W 9 20 5 11 1015.7 1015.6 0.0
30/11:00am 13.0 11.1 7.7 70 2.7 SW 7 15 4 8 1015.9 1015.8 0.0
30/10:30am 12.4 9.4 7.9 74 2.3 WSW 13 20 7 11 1016.2 1016.1 0.0
30/10:00am 11.8 8.9 8.3 79 1.8 WSW 13 19 7 10 1016.4 1016.3 0.0
30/09:30am 11.1 8.2 8.1 82 1.5 WSW 13 20 7 11 1016.1 1016.0 0.0
30/09:28am 11.4 8.7 8.8 84 1.3 WSW 13 19 7 10 1016.1 1016.0 0.0
30/09:00am 11.0 8.2 8.4 84 1.3 W 13 17 7 9 1015.9 1015.8 0.0
30/08:43am 10.6 8.1 8.2 85 1.2 SW 11 15 6 8 1016.0 1015.9 0.0
30/08:30am 10.6 8.7 9.0 90 0.8 SSW 9 15 5 8 1016.1 1016.0 0.0
30/08:00am 9.8 7.2 9.5 98 0.2 SSW 13 19 7 10 1016.0 1015.9 0.0
30/07:30am 9.3 8.0 9.2 99 0.1 SSW 6 11 3 6 1015.4 1015.3 0.0
30/07:00am 7.4 5.6 7.3 99 0.0 S 6 6 3 3 1015.3 1015.2 0.0
30/06:32am 8.1 6.5 7.8 98 0.1 SSW 6 7 3 4 1014.9 1014.8 0.0
30/06:30am 8.3 6.7 8.2 99 0.0 SSW 6 7 3 4 1014.8 1014.7 0.0
30/06:00am 9.1 8.1 9.0 99 0.1 S 4 7 2 4 1014.6 1014.5 0.0
30/05:30am 9.2 7.9 9.1 99 0.1 S 6 9 3 5 1015.1 1015.0 0.0
30/05:05am 8.8 6.4 8.7 99 0.0 SSW 11 20 6 11 1015.1 1015.0 0.0
30/05:00am 8.4 6.3 8.3 99 0.0 SSW 9 13 5 7 1014.9 1014.8 0.0
30/04:41am 8.3 6.2 8.2 99 0.0 SSW 9 13 5 7 1014.9 1014.8 0.0
30/04:30am 8.5 6.0 8.4 99 0.0 SSW 11 19 6 10 1014.7 1014.6 0.0
30/04:14am 8.6 6.6 8.5 99 0.0 S 9 11 5 6 1014.5 1014.4 0.0
30/04:00am 7.9 6.1 7.8 99 0.0 S 7 9 4 5 1014.4 1014.3 0.0
30/03:30am 8.3 6.6 8.2 99 0.0 SSE 7 9 4 5 1014.6 1014.5 0.0
30/03:00am 9.3 7.8 9.2 99 0.1 S 7 9 4 5 1014.8 1014.7 0.0
30/02:37am 9.2 7.7 9.1 99 0.1 S 7 9 4 5 1015.0 1014.9 0.0
30/02:30am 9.1 7.6 9.0 99 0.1 S 7 9 4 5 1015.0 1014.9 0.0
30/02:00am 10.0 7.9 9.9 99 0.1 S 11 13 6 7 1015.2 1015.1 0.0
30/01:30am 9.8 8.1 9.7 99 0.1 SSE 9 13 5 7 1015.7 1015.6 0.0
30/01:03am 10.2 8.1 9.9 98 0.2 SSE 11 15 6 8 1016.1 1016.0 0.0
30/01:00am 10.1 8.0 9.8 98 0.2 SSE 11 15 6 8 1016.1 1016.0 0.0
30/12:30am 11.0 9.2 10.7 98 0.2 S 11 15 6 8 1016.6 1016.5 0.0
30/12:00am 11.1 8.9 10.8 98 0.2 S 13 19 7 10 1016.8 1016.7 0.0
 
Date/Time
EDT
Temp
°C
App
Temp
°C
Dew
Point
Rel
Hum
%
Delta-T
°C
Wind Press
QNH
hPa
Press
MSL
hPa
Rain
since 9 am
mm
Dir
 
Spd
km/h
Gust
km/h
Spd
kts
Gust
kts
29/11:30pm 11.1 8.1 10.8 98 0.2 S 17 22 9 12 1016.9 1016.8 0.0
29/11:00pm 11.1 7.8 10.8 98 0.2 S 19 26 10 14 1016.8 1016.7 0.0
29/10:43pm 10.9 7.5 10.7 99 0.1 S 19 24 10 13 1016.7 1016.6 0.0
29/10:30pm 10.6 7.1 10.3 98 0.2 S 19 22 10 12 1016.8 1016.7 0.0
29/10:00pm 11.2 8.4 9.9 92 0.7 S 15 22 8 12 1016.8 1016.7 0.0
29/09:30pm 12.7 10.5 9.2 79 1.8 SSW 11 20 6 11 1016.7 1016.6 0.0
29/09:00pm 12.4 10.4 8.5 77 2.0 S 9 11 5 6 1016.5 1016.4 0.0
29/08:30pm 14.1 12.2 8.9 71 2.7 SSW 9 15 5 8 1016.3 1016.2 0.0
29/08:00pm 15.3 11.4 8.8 65 3.4 SSW 19 24 10 13 1016.1 1016.0 0.0
29/07:30pm 17.2 14.9 8.9 58 4.4 SSW 11 17 6 9 1015.5 1015.4 0.0
29/07:00pm 18.3 15.1 8.6 53 5.1 S 15 22 8 12 1015.2 1015.1 0.0
29/06:30pm 19.8 15.4 7.2 44 6.5 WSW 20 30 11 16 1015.1 1015.0 0.0
29/06:00pm 19.7 15.1 6.4 42 6.8 WNW 20 28 11 15 1015.0 1014.9 0.0
29/05:30pm 20.6 15.6 6.5 40 7.3 W 22 33 12 18 1015.0 1014.9 0.0
29/05:00pm 20.7 16.8 9.6 49 6.1 W 20 28 11 15 1015.0 1014.9 0.0
29/04:30pm 20.1 16.2 7.1 43 6.8 WNW 17 24 9 13 1015.1 1015.0 0.0
29/04:00pm 20.3 16.2 8.0 45 6.5 WNW 19 28 10 15 1015.1 1015.0 0.0
29/03:30pm 19.6 16.1 8.9 50 5.7 N 17 20 9 11 1015.5 1015.4 0.0
29/03:00pm 19.3 15.6 8.0 48 5.9 N 17 22 9 12 1015.9 1015.8 0.0

Other Formats:

Comma delimited format used in spreadsheet applications
http://www.bom.gov.au/fwo/IDV60801/IDV60801.94852.axf

JavaScript Object Notation format (JSON) in row-major order
http://www.bom.gov.au/fwo/IDV60801/IDV60801.94852.json